createdAt,value
2018-07-20T00:00:07.150Z,23.00
2018-07-20T00:02:36.325Z,23.10
2018-07-20T00:05:06.171Z,23.10
2018-07-20T00:07:35.605Z,23.00
2018-07-20T00:10:05.029Z,23.10
2018-07-20T00:12:34.890Z,23.10
2018-07-20T00:15:04.204Z,23.10
2018-07-20T00:17:33.342Z,23.00
2018-07-20T00:20:02.504Z,23.10
2018-07-20T00:22:31.674Z,23.10
2018-07-20T00:25:00.917Z,23.00
2018-07-20T00:27:30.075Z,22.90
2018-07-20T00:29:59.253Z,22.80
2018-07-20T00:32:28.538Z,22.60
2018-07-20T00:34:57.826Z,22.50
2018-07-20T00:37:27.057Z,22.70
2018-07-20T00:39:56.295Z,22.80
2018-07-20T00:42:25.563Z,22.70
2018-07-20T00:44:54.759Z,22.80
2018-07-20T00:47:24.134Z,22.90
2018-07-20T00:49:53.346Z,22.90
2018-07-20T00:52:22.514Z,22.70
2018-07-20T00:54:51.730Z,22.70
2018-07-20T00:57:20.860Z,22.70
2018-07-20T00:59:50.149Z,22.70
2018-07-20T01:02:19.298Z,22.70
2018-07-20T01:04:48.509Z,22.60
2018-07-20T01:07:17.720Z,22.70
2018-07-20T01:09:46.914Z,22.80
2018-07-20T01:12:16.046Z,22.80
2018-07-20T01:14:45.213Z,22.80
2018-07-20T01:17:14.412Z,22.70
2018-07-20T01:19:43.556Z,22.70
2018-07-20T01:22:12.725Z,22.60
2018-07-20T01:24:41.845Z,22.60
2018-07-20T01:27:11.021Z,22.60
2018-07-20T01:29:40.164Z,22.50
2018-07-20T01:32:09.312Z,22.60
2018-07-20T01:34:38.602Z,22.50
2018-07-20T01:37:07.798Z,22.40
2018-07-20T01:39:36.979Z,22.40
2018-07-20T01:42:06.194Z,22.50
2018-07-20T01:44:35.344Z,22.50
2018-07-20T01:47:04.563Z,22.40
2018-07-20T01:49:33.741Z,22.20
2018-07-20T01:52:02.954Z,22.10
2018-07-20T01:54:32.123Z,22.10
2018-07-20T01:57:01.328Z,22.10
2018-07-20T01:59:30.497Z,22.10
2018-07-20T02:01:59.738Z,22.20
2018-07-20T02:04:28.911Z,21.90
2018-07-20T02:06:58.078Z,22.00
2018-07-20T02:09:27.270Z,21.80
2018-07-20T02:11:56.469Z,21.70
2018-07-20T02:14:25.639Z,21.80
2018-07-20T02:16:54.886Z,21.80
2018-07-20T02:19:24.090Z,21.80
2018-07-20T02:21:53.309Z,21.90
2018-07-20T02:24:22.469Z,22.00
2018-07-20T02:26:51.638Z,22.00
2018-07-20T02:29:21.078Z,22.10
2018-07-20T02:31:50.270Z,22.10
2018-07-20T02:36:48.183Z,22.10
2018-07-20T02:39:17.383Z,22.00
2018-07-20T02:41:46.581Z,21.90
2018-07-20T02:44:15.769Z,21.80
2018-07-20T02:46:44.936Z,21.70
2018-07-20T02:49:14.057Z,21.80
2018-07-20T02:51:43.212Z,21.90
2018-07-20T02:54:12.378Z,21.90
2018-07-20T02:56:41.555Z,21.80
2018-07-20T03:01:39.436Z,21.60
2018-07-20T03:04:08.617Z,21.70
2018-07-20T03:06:37.847Z,21.70
2018-07-20T03:09:09.564Z,21.60
2018-07-20T03:11:38.698Z,21.40
2018-07-20T03:14:07.935Z,21.20
2018-07-20T03:16:37.094Z,21.40
2018-07-20T03:19:06.392Z,21.50
2018-07-20T03:21:35.632Z,21.50
2018-07-20T03:24:04.811Z,21.60
2018-07-20T03:26:34.161Z,21.60
2018-07-20T03:29:03.304Z,21.60
2018-07-20T03:31:32.531Z,21.50
2018-07-20T03:34:01.759Z,21.50
2018-07-20T03:36:31.013Z,21.60
2018-07-20T03:39:00.302Z,21.50
2018-07-20T03:41:29.494Z,21.50
2018-07-20T03:43:58.714Z,21.60
2018-07-20T03:46:27.911Z,21.50
2018-07-20T03:48:57.156Z,21.60
2018-07-20T03:51:26.367Z,21.40
2018-07-20T03:53:55.538Z,21.50
2018-07-20T03:56:24.684Z,21.50
2018-07-20T03:58:53.992Z,21.50
2018-07-20T04:01:23.149Z,21.50
2018-07-20T04:03:52.286Z,21.50
2018-07-20T04:06:21.472Z,21.60
2018-07-20T04:08:50.695Z,21.60
2018-07-20T04:11:19.859Z,21.60
2018-07-20T04:13:49.033Z,21.60
2018-07-20T04:16:18.237Z,21.50
2018-07-20T04:18:47.430Z,21.60
2018-07-20T04:21:16.632Z,21.60
2018-07-20T04:23:46.468Z,21.50
2018-07-20T04:26:15.610Z,21.50
2018-07-20T04:28:44.821Z,21.40
2018-07-20T04:31:14.015Z,21.40
2018-07-20T04:33:43.185Z,21.60
2018-07-20T04:36:12.454Z,21.60
2018-07-20T04:38:41.617Z,21.70
2018-07-20T04:41:10.920Z,21.70
2018-07-20T04:43:40.064Z,21.80
2018-07-20T04:46:09.343Z,21.80
2018-07-20T04:48:38.464Z,21.70
2018-07-20T04:51:07.696Z,21.70
2018-07-20T04:53:36.957Z,21.80
2018-07-20T04:56:06.173Z,21.90
2018-07-20T04:58:35.359Z,22.00
2018-07-20T05:01:04.744Z,22.00
2018-07-20T05:03:33.921Z,22.10
2018-07-20T05:06:03.122Z,22.00
2018-07-20T05:08:32.314Z,22.10
2018-07-20T05:11:01.534Z,22.20
2018-07-20T05:13:30.825Z,22.10
2018-07-20T05:15:59.934Z,22.20
2018-07-20T05:18:29.176Z,22.30
2018-07-20T05:20:58.397Z,22.20
2018-07-20T05:23:27.634Z,22.10
2018-07-20T05:25:56.833Z,22.10
2018-07-20T05:28:26.082Z,22.10
2018-07-20T05:30:55.360Z,22.10
2018-07-20T05:33:24.534Z,22.10
2018-07-20T05:35:53.772Z,22.10
2018-07-20T05:38:22.942Z,22.00
2018-07-20T05:40:52.193Z,21.90
2018-07-20T05:43:21.426Z,21.80
2018-07-20T05:45:50.614Z,21.80
2018-07-20T05:48:19.800Z,21.80
2018-07-20T05:53:17.858Z,22.00
2018-07-20T05:55:47.132Z,21.90
2018-07-20T05:58:16.355Z,22.10
2018-07-20T06:00:45.577Z,22.30
2018-07-20T06:03:15.009Z,22.50
2018-07-20T06:05:44.205Z,22.70
2018-07-20T06:10:42.275Z,22.50
2018-07-20T06:15:40.304Z,23.00
2018-07-20T06:18:09.462Z,23.00
2018-07-20T06:20:38.701Z,23.20
2018-07-20T06:23:13.223Z,23.30
2018-07-20T06:25:42.548Z,23.40
2018-07-20T06:28:11.790Z,23.60
2018-07-20T06:30:40.970Z,23.90
2018-07-20T06:33:10.169Z,24.10
2018-07-20T06:35:39.573Z,24.00
2018-07-20T06:38:08.775Z,24.00
2018-07-20T06:40:38.044Z,24.10
2018-07-20T06:43:07.218Z,24.10
2018-07-20T06:45:36.514Z,24.00
2018-07-20T06:48:05.896Z,24.00
2018-07-20T06:50:35.063Z,23.90
2018-07-20T06:53:04.365Z,23.90
2018-07-20T06:55:33.738Z,24.00
2018-07-20T06:58:02.965Z,24.10
2018-07-20T07:00:32.157Z,24.30
2018-07-20T07:03:01.576Z,24.40
2018-07-20T07:05:30.764Z,24.40
2018-07-20T07:07:59.918Z,24.30
2018-07-20T07:10:29.066Z,24.30
2018-07-20T07:12:58.306Z,24.20
2018-07-20T07:15:28.165Z,24.20
2018-07-20T07:17:57.591Z,24.90
2018-07-20T07:20:26.838Z,26.20
2018-07-20T07:22:57.012Z,27.50
2018-07-20T07:25:27.258Z,28.60
2018-07-20T07:27:56.427Z,29.60
2018-07-20T07:30:25.816Z,30.30
2018-07-20T07:32:55.008Z,30.10
2018-07-20T07:35:24.257Z,30.20
2018-07-20T07:37:53.506Z,30.90
2018-07-20T07:40:22.722Z,31.10
2018-07-20T07:45:20.809Z,31.80
2018-07-20T07:47:49.963Z,32.00
2018-07-20T07:50:19.356Z,31.90
2018-07-20T07:52:48.627Z,32.20
2018-07-20T07:55:17.949Z,31.70
2018-07-20T07:57:47.097Z,32.30
2018-07-20T08:00:16.241Z,33.10
2018-07-20T08:02:45.430Z,33.60
2018-07-20T08:05:14.560Z,33.70
2018-07-20T08:07:43.718Z,34.00
2018-07-20T08:10:12.925Z,34.70
2018-07-20T08:12:42.031Z,35.00
2018-07-20T08:15:11.256Z,35.40
2018-07-20T08:17:40.518Z,35.80
2018-07-20T08:20:09.753Z,36.00
2018-07-20T08:22:38.946Z,36.50
2018-07-20T08:25:08.273Z,36.50
2018-07-20T08:27:37.450Z,36.40
2018-07-20T08:30:06.604Z,36.70
2018-07-20T08:32:35.786Z,36.90
2018-07-20T08:37:33.697Z,36.30
2018-07-20T08:40:03.006Z,36.80
2018-07-20T08:42:32.246Z,36.70
2018-07-20T08:45:01.464Z,35.70
2018-07-20T08:47:30.622Z,36.00
2018-07-20T08:49:59.843Z,35.70
2018-07-20T08:52:29.013Z,34.80
2018-07-20T08:54:58.164Z,34.20
2018-07-20T08:57:27.343Z,33.50
2018-07-20T08:59:56.581Z,32.60
2018-07-20T09:02:25.724Z,31.80
2018-07-20T09:04:55.023Z,31.40
2018-07-20T09:07:24.305Z,30.80
2018-07-20T09:09:53.477Z,30.50
2018-07-20T09:12:22.737Z,30.00
2018-07-20T09:14:52.013Z,29.50
2018-07-20T09:17:21.202Z,29.20
2018-07-20T09:19:50.532Z,28.70
2018-07-20T09:22:19.722Z,28.60
2018-07-20T09:24:48.897Z,28.80
2018-07-20T09:27:18.130Z,28.70
2018-07-20T09:29:47.314Z,28.60
2018-07-20T09:32:16.673Z,28.60
2018-07-20T09:34:46.123Z,28.50
2018-07-20T09:37:15.375Z,28.70
2018-07-20T09:39:45.116Z,29.10
2018-07-20T09:42:14.573Z,29.30
2018-07-20T09:44:43.971Z,29.30
2018-07-20T09:47:13.169Z,29.20
2018-07-20T09:49:42.350Z,29.00
2018-07-20T09:52:11.625Z,28.90
2018-07-20T09:54:40.795Z,29.10
2018-07-20T09:57:10.543Z,29.00
2018-07-20T09:59:39.759Z,29.00
2018-07-20T10:02:08.962Z,29.10
2018-07-20T10:04:38.164Z,29.10
2018-07-20T10:07:07.385Z,29.10
2018-07-20T10:09:36.636Z,29.20
2018-07-20T10:12:06.013Z,29.20
2018-07-20T10:14:35.472Z,29.20
2018-07-20T10:17:05.002Z,29.20
2018-07-20T10:19:34.262Z,29.20
2018-07-20T10:22:03.561Z,29.20
2018-07-20T10:24:32.913Z,29.10
2018-07-20T10:27:02.051Z,29.10
2018-07-20T10:29:31.386Z,28.90
2018-07-20T10:32:00.669Z,28.90
2018-07-20T10:36:58.630Z,29.00
2018-07-20T10:39:27.888Z,28.90
2018-07-20T10:41:57.308Z,29.00
2018-07-20T10:44:26.490Z,29.10
2018-07-20T10:46:55.682Z,29.10
2018-07-20T10:49:24.801Z,29.20
2018-07-20T10:51:54.021Z,29.30
2018-07-20T10:54:23.894Z,29.10
2018-07-20T10:56:53.094Z,29.10
2018-07-20T10:59:22.242Z,29.20
2018-07-20T11:01:51.454Z,29.30
2018-07-20T11:04:20.694Z,29.30
2018-07-20T11:06:49.889Z,29.30
2018-07-20T11:11:47.826Z,29.20
2018-07-20T11:14:16.970Z,29.20
2018-07-20T11:16:46.314Z,29.30
2018-07-20T11:19:15.573Z,29.40
2018-07-20T11:21:44.788Z,29.40
2018-07-20T11:24:13.972Z,29.30
2018-07-20T11:26:43.229Z,29.50
2018-07-20T11:29:13.073Z,29.60
2018-07-20T11:31:42.374Z,29.70
2018-07-20T11:34:11.619Z,29.70
2018-07-20T11:36:40.942Z,29.70
2018-07-20T11:39:10.425Z,29.70
2018-07-20T11:41:39.833Z,29.60
2018-07-20T11:44:09.123Z,29.60
2018-07-20T11:46:38.390Z,29.60
2018-07-20T11:49:07.605Z,29.60
2018-07-20T11:51:36.818Z,29.60
2018-07-20T11:54:06.034Z,29.70
2018-07-20T11:56:35.223Z,29.60
2018-07-20T11:59:04.504Z,29.70
2018-07-20T12:01:33.817Z,29.80
2018-07-20T12:04:03.094Z,29.90
2018-07-20T12:06:32.418Z,30.00
2018-07-20T12:09:01.615Z,30.00
2018-07-20T12:11:30.894Z,30.00
2018-07-20T12:14:00.150Z,29.90
2018-07-20T12:16:29.480Z,29.80
2018-07-20T12:18:58.717Z,29.80
2018-07-20T12:21:27.930Z,29.90
2018-07-20T12:23:57.177Z,30.00
2018-07-20T12:26:26.380Z,30.20
2018-07-20T12:28:55.572Z,30.20
2018-07-20T12:31:24.809Z,30.20
2018-07-20T12:33:54.094Z,30.30
2018-07-20T12:36:23.318Z,30.20
2018-07-20T12:38:52.435Z,30.10
2018-07-20T12:41:21.695Z,30.10
2018-07-20T12:43:50.877Z,30.10
2018-07-20T12:46:20.081Z,30.10
2018-07-20T12:48:49.342Z,30.10
2018-07-20T12:51:18.554Z,30.00
2018-07-20T12:53:47.768Z,29.90
2018-07-20T12:56:17.010Z,30.00
2018-07-20T12:58:46.363Z,30.20
2018-07-20T13:01:15.526Z,30.30
2018-07-20T13:03:44.774Z,30.20
2018-07-20T13:06:13.971Z,29.90
2018-07-20T13:08:43.327Z,29.60
2018-07-20T13:11:12.485Z,29.50
2018-07-20T13:13:41.853Z,29.40
2018-07-20T13:16:11.062Z,29.40
2018-07-20T13:18:40.371Z,29.30
2018-07-20T13:21:09.668Z,29.40
2018-07-20T13:23:38.884Z,29.50
2018-07-20T13:26:08.150Z,29.60
2018-07-20T13:28:37.349Z,29.60
2018-07-20T13:31:06.549Z,29.70
2018-07-20T13:33:35.716Z,29.70
2018-07-20T13:36:05.023Z,29.70
2018-07-20T13:38:34.392Z,29.80
2018-07-20T13:41:03.622Z,29.80
2018-07-20T13:43:32.804Z,29.80
2018-07-20T13:46:01.987Z,29.80
2018-07-20T13:48:31.262Z,29.90
2018-07-20T13:51:00.565Z,30.00
2018-07-20T13:53:29.800Z,30.10
2018-07-20T13:58:27.927Z,30.10
2018-07-20T14:00:57.374Z,30.20
2018-07-20T14:03:26.637Z,30.20
2018-07-20T14:05:55.846Z,30.30
2018-07-20T14:08:25.166Z,30.30
2018-07-20T14:10:54.350Z,30.40
2018-07-20T14:13:23.691Z,30.40
2018-07-20T14:15:53.153Z,30.50
2018-07-20T14:18:22.366Z,30.50
2018-07-20T14:20:53.256Z,30.40
2018-07-20T14:23:22.421Z,30.30
2018-07-20T14:25:51.808Z,30.10
2018-07-20T14:28:20.997Z,30.00
2018-07-20T14:30:50.244Z,30.00
2018-07-20T14:33:19.496Z,29.90
2018-07-20T14:35:48.788Z,29.80
2018-07-20T14:38:18.146Z,29.80
2018-07-20T14:40:47.297Z,29.80
2018-07-20T14:43:16.553Z,29.90
2018-07-20T14:45:45.821Z,30.00
2018-07-20T14:48:15.029Z,30.00
2018-07-20T14:50:44.326Z,29.90
2018-07-20T14:55:42.466Z,29.80
2018-07-20T14:58:11.675Z,29.80
2018-07-20T15:00:40.875Z,29.80
2018-07-20T15:03:10.117Z,29.70
2018-07-20T15:05:39.486Z,29.70
2018-07-20T15:08:08.828Z,29.60
2018-07-20T15:10:38.229Z,29.70
2018-07-20T15:13:07.437Z,29.70
2018-07-20T15:15:36.876Z,29.50
2018-07-20T15:18:06.416Z,29.50
2018-07-20T15:20:35.765Z,29.60
2018-07-20T15:23:05.326Z,29.50
2018-07-20T15:25:34.612Z,29.50
2018-07-20T15:28:04.015Z,29.50
2018-07-20T15:30:33.272Z,29.50
2018-07-20T15:33:02.566Z,29.50
2018-07-20T15:35:31.951Z,29.50
2018-07-20T15:38:01.182Z,29.40
2018-07-20T15:40:30.584Z,29.30
2018-07-20T15:42:59.855Z,29.40
2018-07-20T15:45:29.151Z,29.40
2018-07-20T15:47:58.402Z,29.30
2018-07-20T15:50:27.629Z,29.20
2018-07-20T15:53:36.275Z,29.00
2018-07-20T15:55:26.335Z,28.80
2018-07-20T15:57:55.598Z,28.50
2018-07-20T16:00:24.828Z,28.10
2018-07-20T16:02:54.120Z,27.90
2018-07-20T16:05:23.442Z,27.80
2018-07-20T16:07:52.602Z,27.60
2018-07-20T16:10:21.906Z,27.60
2018-07-20T16:12:51.122Z,27.50
2018-07-20T16:15:20.321Z,27.50
2018-07-20T16:17:49.524Z,27.30
2018-07-20T16:20:18.770Z,27.20
2018-07-20T16:22:48.209Z,27.20
2018-07-20T16:25:17.426Z,27.00
2018-07-20T16:27:47.016Z,26.80
2018-07-20T16:30:16.282Z,26.60
2018-07-20T16:32:45.535Z,26.60
2018-07-20T16:35:14.924Z,26.50
2018-07-20T16:37:44.185Z,26.40
2018-07-20T16:40:13.494Z,26.30
2018-07-20T16:42:42.822Z,26.30
2018-07-20T16:45:12.091Z,26.30
2018-07-20T16:47:41.355Z,26.30
2018-07-20T16:50:10.641Z,26.30
2018-07-20T16:52:39.768Z,26.30
2018-07-20T16:55:08.903Z,26.30
2018-07-20T16:57:38.325Z,26.30
2018-07-20T17:00:08.162Z,26.20
2018-07-20T17:02:37.082Z,26.20
2018-07-20T17:05:06.257Z,26.20
2018-07-20T17:07:35.509Z,26.20
2018-07-20T17:10:05.315Z,26.10
2018-07-20T17:12:34.469Z,26.10
2018-07-20T17:15:03.675Z,26.10
2018-07-20T17:17:32.783Z,26.00
2018-07-20T17:20:01.935Z,26.00
2018-07-20T17:22:31.086Z,25.90
2018-07-20T17:25:00.253Z,25.80
2018-07-20T17:27:30.262Z,25.80
2018-07-20T17:29:59.372Z,25.80
2018-07-20T17:32:28.538Z,25.70
2018-07-20T17:34:57.704Z,25.60
2018-07-20T17:37:26.872Z,25.60
2018-07-20T17:39:56.066Z,25.60
2018-07-20T17:42:25.276Z,25.60
2018-07-20T17:44:54.491Z,25.60
2018-07-20T17:47:23.661Z,25.50
2018-07-20T17:49:52.882Z,25.50
2018-07-20T17:52:22.062Z,25.60
2018-07-20T17:54:51.197Z,25.60
2018-07-20T17:57:20.301Z,25.50
2018-07-20T17:59:49.462Z,25.50
2018-07-20T18:02:18.703Z,25.40
2018-07-20T18:04:47.818Z,25.20
2018-07-20T18:07:16.955Z,25.20
2018-07-20T18:09:46.127Z,25.30
2018-07-20T18:12:15.307Z,25.30
2018-07-20T18:14:44.505Z,25.30
2018-07-20T18:17:13.670Z,25.30
2018-07-20T18:19:42.944Z,25.30
2018-07-20T18:22:12.123Z,25.40
2018-07-20T18:24:41.284Z,25.50
2018-07-20T18:27:10.691Z,25.40
2018-07-20T18:29:39.895Z,25.40
2018-07-20T18:32:09.200Z,25.40
2018-07-20T18:34:38.366Z,25.30
2018-07-20T18:37:07.495Z,25.20
2018-07-20T18:39:36.733Z,25.30
2018-07-20T18:42:06.190Z,25.30
2018-07-20T18:44:35.348Z,25.30
2018-07-20T18:47:04.593Z,25.20
2018-07-20T18:49:33.804Z,25.30
2018-07-20T18:52:03.094Z,25.30
2018-07-20T18:54:32.278Z,25.10
2018-07-20T18:57:01.477Z,25.00
2018-07-20T18:59:30.601Z,25.00
2018-07-20T19:01:59.840Z,24.80
2018-07-20T19:04:28.980Z,24.90
2018-07-20T19:06:58.157Z,24.90
2018-07-20T19:09:27.339Z,24.70
2018-07-20T19:11:56.520Z,24.70
2018-07-20T19:14:25.717Z,24.70
2018-07-20T19:16:54.923Z,24.60
2018-07-20T19:19:24.119Z,24.50
2018-07-20T19:21:53.326Z,24.60
2018-07-20T19:24:22.507Z,24.60
2018-07-20T19:26:51.706Z,24.70
2018-07-20T19:29:20.843Z,24.50
2018-07-20T19:31:50.062Z,24.50
2018-07-20T19:34:19.360Z,24.50
2018-07-20T19:36:48.632Z,24.50
2018-07-20T19:39:17.815Z,24.50
2018-07-20T19:41:46.973Z,24.50
2018-07-20T19:44:16.221Z,24.60
2018-07-20T19:46:45.317Z,24.60
2018-07-20T19:49:14.516Z,24.60
2018-07-20T19:51:43.794Z,24.60
2018-07-20T19:54:12.897Z,24.60
2018-07-20T19:56:42.939Z,24.50
2018-07-20T19:59:12.104Z,24.50
2018-07-20T20:01:41.267Z,24.50
2018-07-20T20:04:10.450Z,24.50
2018-07-20T20:09:10.031Z,24.50
2018-07-20T20:11:39.290Z,24.50
2018-07-20T20:14:08.393Z,24.50
2018-07-20T20:16:37.748Z,24.50
2018-07-20T20:19:06.889Z,24.60
2018-07-20T20:21:36.053Z,24.50
2018-07-20T20:24:05.273Z,24.50
2018-07-20T20:26:34.433Z,24.50
2018-07-20T20:29:03.711Z,24.50
2018-07-20T20:31:32.956Z,24.50
2018-07-20T20:34:02.098Z,24.50
2018-07-20T20:36:31.343Z,24.50
2018-07-20T20:39:00.577Z,24.50
2018-07-20T20:41:29.702Z,24.50
2018-07-20T20:43:58.958Z,24.50
2018-07-20T20:46:28.094Z,24.40
2018-07-20T20:48:58.682Z,24.20
2018-07-20T20:51:27.924Z,24.10
2018-07-20T20:53:57.714Z,24.10
2018-07-20T20:56:26.856Z,24.00
2018-07-20T20:58:56.075Z,24.00
2018-07-20T21:01:25.304Z,24.10
2018-07-20T21:03:55.195Z,24.10
2018-07-20T21:06:24.457Z,24.10
2018-07-20T21:08:53.609Z,24.20
2018-07-20T21:11:22.798Z,24.30
2018-07-20T21:13:51.974Z,24.30
2018-07-20T21:16:21.208Z,24.30
2018-07-20T21:18:50.388Z,24.10
2018-07-20T21:21:19.516Z,24.30
2018-07-20T21:26:18.238Z,24.30
2018-07-20T21:28:47.332Z,24.30
2018-07-20T21:31:16.514Z,24.30
2018-07-20T21:33:45.638Z,24.30
2018-07-20T21:36:14.925Z,24.20
2018-07-20T21:38:44.082Z,24.10
2018-07-20T21:41:13.227Z,24.10
2018-07-20T21:43:42.402Z,24.10
2018-07-20T21:46:11.555Z,24.00
2018-07-20T21:51:09.753Z,23.90
2018-07-20T21:53:38.963Z,23.90
2018-07-20T21:56:08.140Z,24.00
2018-07-20T21:58:37.262Z,24.00
2018-07-20T22:01:06.539Z,24.00
2018-07-20T22:03:35.674Z,24.00
2018-07-20T22:06:04.892Z,24.00
2018-07-20T22:08:34.114Z,24.00
2018-07-20T22:11:03.433Z,24.00
2018-07-20T22:13:32.652Z,24.00
2018-07-20T22:16:01.833Z,23.90
2018-07-20T22:18:31.049Z,23.90
2018-07-20T22:21:00.279Z,23.90
2018-07-20T22:23:30.320Z,23.90
2018-07-20T22:25:59.561Z,23.90
2018-07-20T22:28:28.768Z,23.80
2018-07-20T22:30:58.023Z,23.70
2018-07-20T22:33:27.356Z,23.60
2018-07-20T22:35:56.574Z,23.40
2018-07-20T22:38:25.717Z,23.30
2018-07-20T22:40:54.908Z,23.40
2018-07-20T22:43:24.037Z,23.40
2018-07-20T22:45:53.197Z,23.50
2018-07-20T22:48:22.343Z,23.40
2018-07-20T22:50:51.565Z,23.40
2018-07-20T22:53:20.793Z,23.40
2018-07-20T22:55:50.022Z,23.40
2018-07-20T22:58:19.214Z,23.40
2018-07-20T23:00:48.370Z,23.40
2018-07-20T23:03:17.501Z,23.40
2018-07-20T23:05:46.681Z,23.20
2018-07-20T23:08:15.807Z,23.10
2018-07-20T23:10:44.967Z,23.20
2018-07-20T23:13:14.087Z,23.20
2018-07-20T23:15:43.431Z,23.20
2018-07-20T23:18:12.668Z,23.20
2018-07-20T23:20:41.866Z,23.00
2018-07-20T23:23:11.037Z,23.00
2018-07-20T23:25:40.177Z,22.90
2018-07-20T23:28:09.361Z,23.00
2018-07-20T23:30:38.550Z,23.00
2018-07-20T23:33:07.731Z,22.90
2018-07-20T23:35:36.907Z,22.80
2018-07-20T23:38:06.075Z,22.70
2018-07-20T23:40:35.309Z,22.80
2018-07-20T23:43:04.502Z,22.80
2018-07-20T23:45:33.681Z,22.50
2018-07-20T23:48:02.851Z,22.70
2018-07-20T23:50:32.089Z,22.60
2018-07-20T23:53:01.288Z,22.70
2018-07-20T23:55:30.448Z,22.80
2018-07-20T23:57:59.603Z,22.60
